Accueil
METAR-TAF:

METAR-TAF

Aéroports :

Aéroport Rouen Vallée de Seine

Rouen, France

latitude: 49-23N, longitude: 001-11E, altitude: 157 m

Observation

Le bulletin a été fait il y a 32 minutes, à 21:00 UTC
Vent 1 kt de nord-ouest
Température 11°C
Humidité 76%
Pression 1030 hPa
Visibilité 10 km ou plus
pas de nuages en-dessous de 1500 mètres et pas de cumulonimbus.

METAR: LFOP 062100Z AUTO 32001KT CAVOK 11/07 Q1030

Heure: 23:32 (21:32 UTC)

Prévision

Le bulletin a été fait il y a 4 heures et 32 minutes, à 17:00 UTC
Prévision valable du 06 à 18 UTC au 07 à 18 UTC
Vent 3 kt de direction variable
Visibilité 10 km ou plus
pas de nuages en-dessous de 1500 mètres et pas de cumulonimbus.
Probabilité 30%
du 07 à 04 UTC au 07 à 07 UTC
Visibilité: 4000 m
brume

TAF: LFOP 061700Z 0618/0718 VRB03KT CAVOK PROB30 0704/0707 4000 BR

Observations et prévisions météorologiques de plus de 4000 aéroports (messages METAR et TAF).

Les stations disponibles sont représentées par des disques jaunes et rouges sur la carte.

Passer la souris dessus pour voir le nom de la station.

Cliquer dessus pour voir les observations et prévisions météorologiques.

Pour changer de carte: cliquez sur les boutons verts avec une croix noire pour zoomer, sur le bouton vert avec un tiret pour effectuer un zoom arrière, ou sur les flèches vertes pour les cartes adjacentes.


METAR-TAF: